Naftocement III — SVA7368 — position and weather

sailwx.info

Track history (hours):
 
Tides and Currents Weather Stations Pressure Air Temp Water Temp Dewpoint Dewpoint Depression Visibility Wind Speed Wind Dir Waves Ship Positions

Naftocement III

Last reported at 2017-Sep-21 06:39 UTC. Time now 2017-Sep-22 19:13 UTC.
Position N 37°48' E 025°11'.

Length 77 m; draft 5 m.

Type: Cargo ship. MMSI: 241496000.

Date/timePositionNaut miles runAvg speedWind from/ knotsBaromVisibWave heightAir tempDewpointWater temp
2017-Sep-21 06:39N 37°48' E 025°11'1 8.4
2017-Sep-21 06:30N 37°48' E 025°12'4 8.2
2017-Sep-21 06:00N 37°45' E 025°16'4 8.0
2017-Sep-21 05:30N 37°42' E 025°20'4 8.0
2017-Sep-21 05:00N 37°39' E 025°23'4 8.1
2017-Sep-21 04:30N 37°36' E 025°26'4 8.5
2017-Sep-21 04:00N 37°33' E 025°30'4 8.6
2017-Sep-21 03:30N 37°30' E 025°34'4 8.5
2017-Sep-21 03:00N 37°27' E 025°38'5 8.2
2017-Sep-21 02:26N 37°24' E 025°42'3 7.4
2017-Sep-21 02:00N 37°21' E 025°44'4 7.9
2017-Sep-21 01:30N 37°18' E 025°47'4 7.9
2017-Sep-21 01:00N 37°15' E 025°51'  
2017-Sep-14 18:10N 36°59' E 025°17'2 9.7
2017-Sep-14 18:00N 37°01' E 025°17'5 9.5
2017-Sep-14 17:31N 37°05' E 025°18'4 8.6
2017-Sep-14 17:00N 37°10' E 025°19'4 8.8
2017-Sep-14 16:30N 37°14' E 025°16'4 8.5
2017-Sep-14 16:01N 37°18' E 025°14'4 8.4
2017-Sep-14 15:31N 37°22' E 025°12'4 8.9
2017-Sep-14 15:01N 37°26' E 025°11'4 7.5
2017-Sep-14 14:31N 37°27' E 025°15'4 7.1
2017-Sep-14 14:00N 37°28' E 025°20'0 0.2
2017-Sep-14 13:27N 37°28' E 025°20'0 0.0
2017-Sep-14 13:00N 37°28' E 025°20'0 0.0
2017-Sep-14 12:30N 37°28' E 025°20'0 0.0
2017-Sep-14 12:00N 37°28' E 025°20'0 0.0
2017-Sep-14 11:30N 37°28' E 025°20'0 0.0
2017-Sep-14 11:00N 37°28' E 025°20'0 0.0
2017-Sep-14 10:30N 37°28' E 025°20'0 0.0
2017-Sep-14 10:00N 37°28' E 025°20'0 0.0
2017-Sep-14 09:30N 37°28' E 025°20'0 0.0
2017-Sep-14 08:57N 37°28' E 025°20'0 0.0
2017-Sep-14 08:30N 37°28' E 025°20'0 0.0
2017-Sep-14 08:00N 37°28' E 025°20'0 0.0
2017-Sep-14 07:24N 37°28' E 025°20'0 0.0
2017-Sep-14 07:00N 37°28' E 025°20'0 0.0
2017-Sep-14 06:30N 37°28' E 025°20'0 0.0
2017-Sep-14 06:00N 37°28' E 025°20'0 0.0
2017-Sep-14 05:30N 37°28' E 025°20'0 0.0
2017-Sep-14 05:00N 37°28' E 025°20'0 0.0
2017-Sep-14 04:30N 37°28' E 025°20'0 0.0
2017-Sep-14 04:00N 37°28' E 025°20'0 0.0
2017-Sep-14 03:30N 37°28' E 025°20'0 0.0
2017-Sep-14 03:00N 37°28' E 025°20'0 0.9
2017-Sep-14 02:30N 37°27' E 025°19'1 1.1
2017-Sep-14 02:00N 37°27' E 025°19'0 0.0
2017-Sep-13 22:38N 37°27' E 025°19'0 0.2
2017-Sep-13 22:29N 37°27' E 025°19'0 0.1
2017-Sep-13 21:59N 37°27' E 025°19'0 0.0
2017-Sep-13 21:26N 37°27' E 025°19'0 0.0
2017-Sep-13 20:38N 37°27' E 025°19'0 0.0
2017-Sep-13 20:23N 37°27' E 025°19'0 0.0
2017-Sep-13 17:41N 37°27' E 025°19'0 0.0
2017-Sep-13 17:26N 37°27' E 025°19'0 0.0
2017-Sep-13 17:00N 37°27' E 025°19'0 0.0
2017-Sep-13 16:29N 37°27' E 025°19'0 0.0
2017-Sep-13 15:57N 37°27' E 025°19'0 0.0
2017-Sep-13 15:30N 37°27' E 025°19'0 0.0
2017-Sep-13 15:00N 37°27' E 025°19'0 0.0
2017-Sep-13 14:30N 37°27' E 025°19'0 0.0
2017-Sep-13 14:00N 37°27' E 025°19'0 0.0
2017-Sep-13 13:30N 37°27' E 025°19'0 0.0
2017-Sep-13 13:00N 37°27' E 025°19'0 0.0
2017-Sep-13 12:30N 37°27' E 025°19'0 0.0
2017-Sep-13 12:00N 37°27' E 025°19'0 0.1
2017-Sep-13 11:30N 37°27' E 025°19'1 1.9
2017-Sep-13 11:00N 37°28' E 025°18'3 6.7
2017-Sep-13 10:30N 37°31' E 025°18'5 9.1
2017-Sep-13 10:00N 37°35' E 025°19'5 9.4
2017-Sep-13 09:30N 37°40' E 025°21'5 9.4
2017-Sep-13 09:00N 37°44' E 025°24'5 9.2
2017-Sep-13 08:30N 37°48' E 025°26'4 9.0
2017-Sep-13 08:00N 37°53' E 025°28'85 2.2
2017-Sep-11 16:37N 39°03' E 024°26'1 7.6
2017-Sep-11 16:27N 39°02' E 024°24'3 7.8
2017-Sep-11 16:00N 39°02' E 024°20'  
Track history (hours):
 
Tides and Currents Weather Stations Pressure Air Temp Water Temp Dewpoint Dewpoint Depression Visibility Wind Speed Wind Dir Waves Ship Positions

Naftocement III

Last reported at 2017-Sep-21 06:39 UTC. Time now 2017-Sep-22 19:13 UTC.
Position N 37°48' E 025°11'.

Length 77 m; draft 5 m.

Type: Cargo ship. MMSI: 241496000.

Date/timePositionNaut miles runAvg speedWind from/ knotsBaromVisibWave heightAir tempDewpointWater temp
2017-Sep-21 06:39N 37°48' E 025°11'1 8.4
2017-Sep-21 06:30N 37°48' E 025°12'4 8.2
2017-Sep-21 06:00N 37°45' E 025°16'4 8.0
2017-Sep-21 05:30N 37°42' E 025°20'4 8.0
2017-Sep-21 05:00N 37°39' E 025°23'4 8.1
2017-Sep-21 04:30N 37°36' E 025°26'4 8.5
2017-Sep-21 04:00N 37°33' E 025°30'4 8.6
2017-Sep-21 03:30N 37°30' E 025°34'4 8.5
2017-Sep-21 03:00N 37°27' E 025°38'5 8.2
2017-Sep-21 02:26N 37°24' E 025°42'3 7.4
2017-Sep-21 02:00N 37°21' E 025°44'4 7.9
2017-Sep-21 01:30N 37°18' E 025°47'4 7.9
2017-Sep-21 01:00N 37°15' E 025°51'  
2017-Sep-14 18:10N 36°59' E 025°17'2 9.7
2017-Sep-14 18:00N 37°01' E 025°17'5 9.5
2017-Sep-14 17:31N 37°05' E 025°18'4 8.6
2017-Sep-14 17:00N 37°10' E 025°19'4 8.8
2017-Sep-14 16:30N 37°14' E 025°16'4 8.5
2017-Sep-14 16:01N 37°18' E 025°14'4 8.4
2017-Sep-14 15:31N 37°22' E 025°12'4 8.9
2017-Sep-14 15:01N 37°26' E 025°11'4 7.5
2017-Sep-14 14:31N 37°27' E 025°15'4 7.1
2017-Sep-14 14:00N 37°28' E 025°20'0 0.2
2017-Sep-14 13:27N 37°28' E 025°20'0 0.0
2017-Sep-14 13:00N 37°28' E 025°20'0 0.0
2017-Sep-14 12:30N 37°28' E 025°20'0 0.0
2017-Sep-14 12:00N 37°28' E 025°20'0 0.0
2017-Sep-14 11:30N 37°28' E 025°20'0 0.0
2017-Sep-14 11:00N 37°28' E 025°20'0 0.0
2017-Sep-14 10:30N 37°28' E 025°20'0 0.0
2017-Sep-14 10:00N 37°28' E 025°20'0 0.0
2017-Sep-14 09:30N 37°28' E 025°20'0 0.0
2017-Sep-14 08:57N 37°28' E 025°20'0 0.0
2017-Sep-14 08:30N 37°28' E 025°20'0 0.0
2017-Sep-14 08:00N 37°28' E 025°20'0 0.0
2017-Sep-14 07:24N 37°28' E 025°20'0 0.0
2017-Sep-14 07:00N 37°28' E 025°20'0 0.0
2017-Sep-14 06:30N 37°28' E 025°20'0 0.0
2017-Sep-14 06:00N 37°28' E 025°20'0 0.0
2017-Sep-14 05:30N 37°28' E 025°20'0 0.0
2017-Sep-14 05:00N 37°28' E 025°20'0 0.0
2017-Sep-14 04:30N 37°28' E 025°20'0 0.0
2017-Sep-14 04:00N 37°28' E 025°20'0 0.0
2017-Sep-14 03:30N 37°28' E 025°20'0 0.0
2017-Sep-14 03:00N 37°28' E 025°20'0 0.9
2017-Sep-14 02:30N 37°27' E 025°19'1 1.1
2017-Sep-14 02:00N 37°27' E 025°19'0 0.0
2017-Sep-13 22:38N 37°27' E 025°19'0 0.2
2017-Sep-13 22:29N 37°27' E 025°19'0 0.1
2017-Sep-13 21:59N 37°27' E 025°19'0 0.0
2017-Sep-13 21:26N 37°27' E 025°19'0 0.0
2017-Sep-13 20:38N 37°27' E 025°19'0 0.0
2017-Sep-13 20:23N 37°27' E 025°19'0 0.0
2017-Sep-13 17:41N 37°27' E 025°19'0 0.0
2017-Sep-13 17:26N 37°27' E 025°19'0 0.0
2017-Sep-13 17:00N 37°27' E 025°19'0 0.0
2017-Sep-13 16:29N 37°27' E 025°19'0 0.0
2017-Sep-13 15:57N 37°27' E 025°19'0 0.0
2017-Sep-13 15:30N 37°27' E 025°19'0 0.0
2017-Sep-13 15:00N 37°27' E 025°19'0 0.0
2017-Sep-13 14:30N 37°27' E 025°19'0 0.0
2017-Sep-13 14:00N 37°27' E 025°19'0 0.0
2017-Sep-13 13:30N 37°27' E 025°19'0 0.0
2017-Sep-13 13:00N 37°27' E 025°19'0 0.0
2017-Sep-13 12:30N 37°27' E 025°19'0 0.0
2017-Sep-13 12:00N 37°27' E 025°19'0 0.1
2017-Sep-13 11:30N 37°27' E 025°19'1 1.9
2017-Sep-13 11:00N 37°28' E 025°18'3 6.7
2017-Sep-13 10:30N 37°31' E 025°18'5 9.1
2017-Sep-13 10:00N 37°35' E 025°19'5 9.4
2017-Sep-13 09:30N 37°40' E 025°21'5 9.4
2017-Sep-13 09:00N 37°44' E 025°24'5 9.2
2017-Sep-13 08:30N 37°48' E 025°26'4 9.0
2017-Sep-13 08:00N 37°53' E 025°28'85 2.2
2017-Sep-11 16:37N 39°03' E 024°26'1 7.6
2017-Sep-11 16:27N 39°02' E 024°24'3 7.8
2017-Sep-11 16:00N 39°02' E 024°20'  

Dump ship's entire track history